Time;durP1;ratioP1;P1;durP2;ratioP2;P2;SDS_P1;SDS_P2;PMS_P1;PMS_P2;Temp;Humidity;BMP_temperature;BMP_pressure;BME280_temperature;BME280_humidity;BME280_pressure;Samples;Min_cycle;Max_cycle;Signal;HPM_P1;HPM_P2
2023/06/10 08:34:58;;;;;;;10.23;6.35;;;;;;;-144.30;38.75;82674.03;5127111;27;20300;-52
2023/06/10 08:37:25;;;;;;;9.20;6.57;;;;;;;-144.30;37.87;82725.69;5127728;27;20194;-52
2023/06/10 08:39:52;;;;;;;6.63;5.82;;;;;;;-144.30;38.37;82685.94;5127309;27;20212;-52
2023/06/10 08:42:24;;;;;;;6.53;5.72;;;;;;;-144.30;36.70;82618.41;5127481;27;20208;-51
2023/06/10 08:44:54;;;;;;;6.57;5.78;;;;;;;-144.30;36.22;82733.63;5127320;27;20636;-52
2023/06/10 08:47:24;;;;;;;7.47;5.40;;;;;;;-144.30;37.98;82765.41;5127915;27;20617;-52
2023/06/10 08:49:52;;;;;;;11.43;6.70;;;;;;;-144.30;39.19;82777.31;5127558;27;20202;-53
2023/06/10 08:52:21;;;;;;;9.40;5.63;;;;;;;-144.30;37.11;82830.97;5127317;27;20221;-52
2023/06/10 08:54:53;;;;;;;6.53;5.93;;;;;;;-144.30;38.73;82836.91;5127081;27;20214;-52
2023/06/10 08:57:21;;;;;;;11.32;6.25;;;;;;;-144.30;40.38;82828.97;5127225;27;20895;-53
2023/06/10 08:59:49;;;;;;;6.68;6.18;;;;;;;-144.30;38.02;82821.03;5127315;27;20670;-53
2023/06/10 09:02:19;;;;;;;6.32;5.85;;;;;;;-144.30;39.78;82701.84;5127243;27;20277;-52
2023/06/10 09:04:47;;;;;;;6.60;5.43;;;;;;;-144.30;38.77;82614.44;5127230;27;20703;-52
2023/06/10 09:07:16;;;;;;;5.07;4.70;;;;;;;-144.30;35.06;82701.84;5127175;27;20205;-57
2023/06/10 09:09:45;;;;;;;5.78;5.38;;;;;;;-144.30;35.22;82787.25;5127252;27;20198;-56
2023/06/10 09:12:14;;;;;;;5.80;5.20;;;;;;;-144.30;35.92;82920.34;5126955;27;20582;-57
2023/06/10 09:14:42;;;;;;;6.05;5.40;;;;;;;-144.30;36.31;83023.66;5126543;27;20229;-57
2023/06/10 09:17:08;;;;;;;5.82;5.32;;;;;;;-144.30;34.98;82970.00;5126375;27;20198;-57
2023/06/10 09:19:36;;;;;;;5.80;5.30;;;;;;;-144.30;37.05;83053.44;5126775;27;20198;-57
2023/06/10 09:22:03;;;;;;;4.80;4.43;;;;;;;-144.30;34.37;83085.22;5126543;27;20629;-56
2023/06/10 09:24:31;;;;;;;5.68;5.03;;;;;;;-144.30;34.47;83162.72;5126593;27;20681;-56
2023/06/10 09:27:06;;;;;;;5.18;4.70;;;;;;;-144.30;34.08;83148.81;5121653;27;20226;-55
2023/06/10 09:29:33;;;;;;;4.95;4.45;;;;;;;-144.30;36.07;83198.47;5124742;27;20324;-56
2023/06/10 09:32:00;;;;;;;5.28;4.88;;;;;;;-144.30;34.59;83142.84;5124046;27;20253;-57
2023/06/10 09:34:27;;;;;;;5.38;4.88;;;;;;;-144.30;35.12;83226.28;5124430;27;20238;-56
2023/06/10 09:36:55;;;;;;;6.20;5.70;;;;;;;-144.30;35.56;83200.47;5124699;27;20797;-57
2023/06/10 09:39:22;;;;;;;9.35;5.10;;;;;;;-144.30;35.63;83252.09;5125576;27;20263;-57
2023/06/10 09:41:49;;;;;;;5.90;5.50;;;;;;;-144.30;36.09;83262.03;5125417;28;20252;-56
2023/06/10 09:44:20;;;;;;;5.68;5.28;;;;;;;-144.30;36.03;83236.22;5123324;27;20275;-56
2023/06/10 09:46:48;;;;;;;7.45;5.78;;;;;;;-144.30;36.31;83218.34;5112331;28;20218;-56
2023/06/10 09:49:15;;;;;;;8.90;5.65;;;;;;;-144.30;36.50;83180.59;5111882;28;20222;-57
2023/06/10 09:51:52;;;;;;;8.57;5.55;;;;;;;-144.30;40.13;83258.06;5111371;28;20214;-57
2023/06/10 09:54:19;;;;;;;7.93;5.63;;;;;;;-144.30;41.88;83357.41;5111610;28;20230;-57
2023/06/10 09:56:48;;;;;;;7.65;5.70;;;;;;;-144.30;42.58;83305.75;5112085;28;20218;-57
2023/06/10 09:59:15;;;;;;;6.60;5.90;;;;;;;-144.30;42.87;83446.81;5111884;28;20597;-56
2023/06/10 10:01:44;;;;;;;12.98;5.63;;;;;;;-144.30;43.60;83512.38;5117408;27;20230;-51
2023/06/10 10:04:11;;;;;;;6.55;5.85;;;;;;;-144.30;43.41;83540.19;5111556;28;20256;-52
2023/06/10 10:06:38;;;;;;;9.50;7.75;;;;;;;-144.30;43.41;83564.03;5111632;28;20195;-50
2023/06/10 10:09:05;;;;;;;8.30;7.50;;;;;;;-144.30;43.98;83554.09;5111959;28;20211;-51
2023/06/10 10:11:35;;;;;;;9.82;6.93;;;;;;;-144.30;43.80;83595.81;5112342;28;25133;-57
2023/06/10 10:14:05;;;;;;;10.70;6.10;;;;;;;-144.30;43.72;83579.94;5112231;28;20231;-57
2023/06/10 10:16:38;;;;;;;9.55;6.28;;;;;;;-144.30;44.02;83490.53;5112405;28;20216;-58
2023/06/10 10:19:12;;;;;;;15.27;6.90;;;;;;;-144.30;43.55;83444.81;5112079;28;20690;-58
2023/06/10 10:21:44;;;;;;;6.05;5.30;;;;;;;-144.30;41.98;83430.91;5111746;28;20264;-58
2023/06/10 10:24:16;;;;;;;6.53;6.13;;;;;;;-144.30;41.28;83385.22;5110286;28;20401;-57
2023/06/10 10:26:43;;;;;;;6.00;5.50;;;;;;;-144.30;41.41;83367.34;5110029;28;20209;-56
2023/06/10 10:29:15;;;;;;;6.80;6.20;;;;;;;-144.30;41.32;83363.38;5111489;28;20593;-58
2023/06/10 10:31:45;;;;;;;6.50;5.13;;;;;;;-144.30;41.13;83397.16;5111764;28;20696;-58
2023/06/10 10:34:17;;;;;;;7.80;7.03;;;;;;;-144.30;41.16;83397.16;5111190;28;20235;-58
2023/06/10 10:36:47;;;;;;;6.53;6.00;;;;;;;-144.30;41.66;83401.13;5111782;28;20226;-57
2023/06/10 10:39:15;;;;;;;8.32;7.45;;;;;;;-144.30;41.27;83393.16;5111618;28;20255;-58
2023/06/10 10:41:43;;;;;;;6.50;6.03;;;;;;;-144.30;40.76;83373.31;5111102;28;20730;-57
2023/06/10 10:44:11;;;;;;;7.57;5.95;;;;;;;-144.30;40.56;83401.13;5111535;28;20663;-57
2023/06/10 10:46:45;;;;;;;11.38;7.50;;;;;;;-144.30;42.58;83337.53;5111319;28;20216;-57
2023/06/10 10:49:15;;;;;;;6.85;6.30;;;;;;;-144.30;43.17;83403.09;5111113;28;20187;-57
2023/06/10 10:51:56;;;;;;;10.68;6.25;;;;;;;-144.30;40.34;83385.22;5111295;28;20206;-57
2023/06/10 10:54:30;;;;;;;7.68;7.18;;;;;;;-144.30;41.82;83385.22;5111043;28;20222;-57
2023/06/10 10:57:14;;;;;;;7.30;6.50;;;;;;;-144.30;40.21;83341.50;5110328;28;20761;-57
2023/06/10 10:59:52;;;;;;;6.25;5.95;;;;;;;-144.30;40.10;83333.56;5109712;28;20696;-57
2023/06/10 11:02:32;;;;;;;6.82;5.97;;;;;;;-144.30;41.60;83434.91;5105643;28;20201;-56
2023/06/10 11:05:01;;;;;;;8.30;6.03;;;;;;;-144.30;40.91;83419.00;5108671;28;20186;-57
2023/06/10 11:07:31;;;;;;;8.60;5.63;;;;;;;-144.30;40.00;83413.03;5110374;28;20191;-54
2023/06/10 11:10:00;;;;;;;5.97;5.50;;;;;;;-144.30;40.73;83393.16;5110642;28;20202;-53
2023/06/10 11:12:27;;;;;;;7.80;5.85;;;;;;;-144.30;41.01;83409.06;5110305;28;20589;-53
2023/06/10 11:14:57;;;;;;;4.97;4.68;;;;;;;-144.30;41.13;83420.97;5110014;28;20305;-54
2023/06/10 11:17:24;;;;;;;5.57;4.93;;;;;;;-144.30;41.25;83544.16;5110472;28;20190;-54
2023/06/10 11:19:51;;;;;;;5.03;4.72;;;;;;;-144.30;41.57;83512.38;5107221;28;20187;-54
2023/06/10 11:22:19;;;;;;;8.73;5.00;;;;;;;-144.30;42.68;83573.97;5109911;28;20237;-54
2023/06/10 11:24:50;;;;;;;5.38;4.00;;;;;;;-144.30;42.68;83635.56;5110103;28;20274;-57
2023/06/10 11:27:19;;;;;;;5.07;4.57;;;;;;;-144.30;42.66;83496.50;5110106;28;20198;-57
2023/06/10 11:29:59;;;;;;;9.75;4.78;;;;;;;-144.30;42.10;83560.06;5110191;28;20194;-57
2023/06/10 11:32:31;;;;;;;5.47;4.50;;;;;;;-144.30;41.42;83532.25;5110051;28;20747;-56
2023/06/10 11:34:58;;;;;;;4.70;4.30;;;;;;;-144.30;40.44;83476.63;5109661;28;20263;-57
2023/06/10 11:37:28;;;;;;;4.88;4.47;;;;;;;-144.30;40.44;83546.16;5109994;28;20825;-57
2023/06/10 11:39:56;;;;;;;5.28;4.80;;;;;;;-144.30;40.26;83393.16;5107631;28;20300;-57
2023/06/10 11:42:24;;;;;;;5.25;4.40;;;;;;;-144.30;40.38;83480.59;5109348;28;20354;-58
2023/06/10 11:44:51;;;;;;;5.00;4.68;;;;;;;-144.30;40.22;83480.59;5106818;28;20187;-56
2023/06/10 11:47:19;;;;;;;7.28;5.10;;;;;;;-144.30;40.14;83381.25;5109847;28;20195;-57
2023/06/10 11:49:46;;;;;;;5.40;4.75;;;;;;;-144.30;40.74;83460.72;5109834;28;20226;-58
2023/06/10 11:52:13;;;;;;;4.80;4.25;;;;;;;-144.30;40.08;83405.09;5109585;28;20636;-57
2023/06/10 11:54:41;;;;;;;7.35;4.63;;;;;;;-144.30;40.14;83452.78;5109378;28;20221;-57
2023/06/10 11:57:09;;;;;;;5.57;4.68;;;;;;;-144.30;39.65;83474.63;5109366;28;20208;-57
2023/06/10 11:59:36;;;;;;;5.20;4.28;;;;;;;-144.30;40.13;83468.66;5109562;28;20201;-57
2023/06/10 12:02:03;;;;;;;4.40;4.20;;;;;;;-144.30;40.21;83450.78;5109464;28;20554;-57
2023/06/10 12:04:30;;;;;;;5.13;4.82;;;;;;;-144.30;39.96;83436.88;5109372;28;20190;-56
2023/06/10 12:06:57;;;;;;;5.43;4.93;;;;;;;-144.30;40.17;83458.72;5109095;28;20190;-57
2023/06/10 12:09:25;;;;;;;4.78;4.47;;;;;;;-144.30;40.33;83393.16;5109239;28;20195;-57
2023/06/10 12:11:55;;;;;;;5.32;4.93;;;;;;;-144.30;39.54;83413.03;5107032;28;20197;-56
2023/06/10 12:14:54;;;;;;;5.32;4.82;;;;;;;-144.30;39.82;83369.34;5109521;28;20232;-57
2023/06/10 12:17:22;;;;;;;5.28;4.88;;;;;;;-144.30;39.59;83313.69;5107797;28;20190;-58
2023/06/10 12:19:49;;;;;;;5.30;4.90;;;;;;;-144.30;40.00;83331.59;5109146;28;20190;-57
2023/06/10 12:22:19;;;;;;;6.57;4.88;;;;;;;-144.30;39.63;83377.28;5109368;28;20191;-57
2023/06/10 12:24:46;;;;;;;5.15;4.82;;;;;;;-144.30;39.80;83327.59;5109304;28;20191;-57
2023/06/10 12:27:15;;;;;;;5.82;5.07;;;;;;;-144.30;39.60;83355.41;5106710;28;20193;-55
2023/06/10 12:29:53;;;;;;;5.97;4.60;;;;;;;-144.30;39.39;83426.94;5109205;28;20197;-56
2023/06/10 12:32:22;;;;;;;6.05;5.13;;;;;;;-144.30;39.82;83381.25;5107939;28;20579;-56
2023/06/10 12:34:50;;;;;;;5.32;4.97;;;;;;;-144.30;39.73;83442.84;5108782;28;20732;-57
2023/06/10 12:37:17;;;;;;;6.60;4.95;;;;;;;-144.30;40.14;83488.53;5108972;28;20224;-57
2023/06/10 12:39:53;;;;;;;7.13;5.40;;;;;;;-144.30;40.08;83754.78;5109115;28;20206;-55
2023/06/10 12:42:23;;;;;;;6.15;5.55;;;;;;;-144.30;40.65;83488.53;5107441;28;20190;-56
2023/06/10 12:44:54;;;;;;;7.43;5.80;;;;;;;-144.30;41.79;83516.34;5108785;28;20197;-58
2023/06/10 12:47:31;;;;;;;7.18;6.40;;;;;;;-144.30;41.75;83512.38;5109191;28;20204;-57
2023/06/10 12:49:58;;;;;;;6.43;5.90;;;;;;;-144.30;41.98;83498.47;5107116;28;20301;-57
2023/06/10 12:52:25;;;;;;;9.20;6.55;;;;;;;-144.30;41.86;83542.19;5109270;28;20693;-53
2023/06/10 12:54:52;;;;;;;5.85;5.40;;;;;;;-144.30;42.00;83575.97;5106212;28;20215;-54
2023/06/10 12:57:20;;;;;;;6.10;5.60;;;;;;;-144.30;41.79;83601.78;5109016;28;20195;-53
2023/06/10 12:59:52;;;;;;;6.82;6.32;;;;;;;-144.30;41.84;83601.78;5108909;28;20197;-53
2023/06/10 13:02:19;;;;;;;6.78;5.88;;;;;;;-144.30;42.49;83826.31;5108880;28;20285;-53
2023/06/10 13:04:46;;;;;;;6.13;5.65;;;;;;;-144.30;42.61;83665.38;5108811;28;20323;-53
2023/06/10 13:07:13;;;;;;;8.15;5.13;;;;;;;-144.30;42.57;83595.81;5106318;28;20197;-53
2023/06/10 13:09:40;;;;;;;5.63;5.22;;;;;;;-144.30;41.93;83589.88;5108910;28;20207;-52
2023/06/10 13:12:09;;;;;;;7.70;5.72;;;;;;;-144.30;41.92;83568.00;5109039;28;20195;-53
2023/06/10 13:14:38;;;;;;;5.70;5.40;;;;;;;-144.30;41.20;83595.81;5109020;28;20263;-53
2023/06/10 13:17:06;;;;;;;15.25;5.30;;;;;;;-144.30;40.09;83591.84;5108589;28;20190;-52
2023/06/10 13:19:33;;;;;;;5.35;5.05;;;;;;;-144.30;40.58;83579.94;5109388;28;20262;-51
2023/06/10 13:22:00;;;;;;;6.63;4.75;;;;;;;-144.30;40.19;83623.66;5112311;28;20191;-52
2023/06/10 13:24:27;;;;;;;6.25;5.85;;;;;;;-144.30;40.90;83631.59;5112354;28;20272;-52
2023/06/10 13:26:56;;;;;;;5.80;5.40;;;;;;;-144.30;41.06;83597.81;5112477;28;20198;-53
2023/06/10 13:29:23;;;;;;;5.53;5.13;;;;;;;-144.30;41.32;83645.50;5109233;28;20268;-53
2023/06/10 13:31:54;;;;;;;6.13;5.63;;;;;;;-144.30;41.06;83579.94;5112114;28;20230;-53
2023/06/10 13:34:21;;;;;;;5.70;5.30;;;;;;;-144.30;40.67;83568.00;5112011;28;20231;-52
2023/06/10 13:36:48;;;;;;;6.28;4.90;;;;;;;-144.30;40.82;83619.66;5111629;28;20230;-50
2023/06/10 13:39:15;;;;;;;5.07;4.57;;;;;;;-144.30;40.31;83629.59;5111635;28;20306;-50
2023/06/10 13:41:42;;;;;;;5.70;4.85;;;;;;;-144.30;40.09;83645.50;5112043;28;20537;-52
2023/06/10 13:44:09;;;;;;;5.63;5.22;;;;;;;-144.30;40.57;83617.69;5110362;28;20220;-52
2023/06/10 13:46:36;;;;;;;9.02;4.78;;;;;;;-144.30;40.42;83623.66;5111350;28;20198;-52
2023/06/10 13:49:04;;;;;;;5.50;5.10;;;;;;;-144.30;40.11;83631.59;5111055;28;20198;-52
2023/06/10 13:51:31;;;;;;;9.48;5.43;;;;;;;-144.30;39.41;83607.75;5112449;28;20198;-57
2023/06/10 13:53:58;;;;;;;5.35;4.82;;;;;;;-144.30;38.66;83629.59;5112721;28;20629;-57
2023/06/10 13:56:25;;;;;;;4.22;3.70;;;;;;;-144.30;37.86;83623.66;5112692;28;20710;-57
2023/06/10 13:58:52;;;;;;;4.55;4.30;;;;;;;-144.30;38.22;83615.69;5112246;28;20281;-55
2023/06/10 14:01:19;;;;;;;5.40;5.10;;;;;;;-144.30;39.94;83639.53;5112133;28;20194;-57
2023/06/10 14:03:46;;;;;;;5.43;4.93;;;;;;;-144.30;40.14;83573.97;5112274;28;20194;-56
2023/06/10 14:06:18;;;;;;;5.95;5.50;;;;;;;-144.30;40.54;83621.66;5112158;28;20237;-56
2023/06/10 14:08:45;;;;;;;6.38;5.70;;;;;;;-144.30;40.54;83625.63;5112329;28;20198;-56
2023/06/10 14:11:12;;;;;;;5.10;4.65;;;;;;;-144.30;40.06;83599.81;5112133;28;20199;-57
2023/06/10 14:13:39;;;;;;;5.72;5.38;;;;;;;-144.30;39.94;83617.69;5112366;28;20217;-57
2023/06/10 14:16:06;;;;;;;6.55;5.95;;;;;;;-144.30;40.90;83643.50;5112093;28;20237;-53
2023/06/10 14:18:33;;;;;;;6.63;5.72;;;;;;;-144.30;40.61;83607.75;5112107;28;20725;-54
2023/06/10 14:21:00;;;;;;;5.65;5.25;;;;;;;-144.30;40.57;83651.47;5112297;28;20203;-51
2023/06/10 14:23:28;;;;;;;5.20;4.80;;;;;;;-144.30;40.76;83627.63;5111887;28;20230;-52
2023/06/10 14:25:55;;;;;;;6.95;5.18;;;;;;;-144.30;40.91;83671.34;5111900;28;20586;-51
2023/06/10 14:28:23;;;;;;;6.30;5.43;;;;;;;-144.30;40.90;83621.66;5112015;28;20722;-57
2023/06/10 14:30:50;;;;;;;6.05;5.45;;;;;;;-144.30;41.04;83651.47;5111509;28;20199;-57
2023/06/10 14:33:17;;;;;;;5.43;5.03;;;;;;;-144.30;40.49;83643.50;5111765;28;20693;-60
2023/06/10 14:35:44;;;;;;;5.00;4.43;;;;;;;-144.30;40.14;83689.22;5111674;28;20222;-60
2023/06/10 14:38:11;;;;;;;5.70;5.30;;;;;;;-144.30;40.40;83687.22;5111897;27;20198;-53
2023/06/10 14:40:40;;;;;;;6.10;4.60;;;;;;;-144.30;40.62;83715.03;5111742;28;20200;-55
2023/06/10 14:43:09;;;;;;;5.32;4.90;;;;;;;-144.30;40.45;83701.13;5111587;28;20591;-54
2023/06/10 14:45:36;;;;;;;4.90;4.60;;;;;;;-144.30;40.11;83691.19;5111441;28;20257;-55
2023/06/10 14:48:03;;;;;;;5.30;4.75;;;;;;;-144.30;40.15;83709.09;5111007;28;20717;-55
2023/06/10 14:50:32;;;;;;;7.43;5.05;;;;;;;-144.30;40.45;83723.00;5111136;28;20286;-54
2023/06/10 14:52:59;;;;;;;4.60;4.20;;;;;;;-144.30;39.89;83711.06;5108597;28;20246;-63
2023/06/10 14:55:25;;;;;;;5.55;5.00;;;;;;;-144.30;40.40;83746.84;5111014;28;20306;-63
2023/06/10 14:57:54;;;;;;;5.03;4.65;;;;;;;-144.30;40.21;83744.84;5111118;28;20428;-63
2023/06/10 15:00:23;;;;;;;5.85;4.68;;;;;;;-144.30;39.32;83726.97;5111421;28;20204;-63
2023/06/10 15:02:50;;;;;;;8.15;5.18;;;;;;;-144.30;39.44;83738.88;5111727;28;20194;-63
2023/06/10 15:05:17;;;;;;;5.78;4.88;;;;;;;-144.30;39.53;83730.94;5111386;28;20195;-64
2023/06/10 15:07:44;;;;;;;4.85;4.55;;;;;;;-144.30;39.39;83639.53;5111071;28;20226;-54
2023/06/10 15:10:12;;;;;;;9.80;4.90;;;;;;;-144.30;44.82;83695.19;5109305;28;20197;-53
2023/06/10 15:12:39;;;;;;;5.60;5.20;;;;;;;-144.30;38.93;83685.25;5111001;28;20281;-54
2023/06/10 15:15:08;;;;;;;5.57;4.28;;;;;;;-144.30;38.05;83740.88;5110871;28;20313;-54
2023/06/10 15:17:34;;;;;;;5.05;4.70;;;;;;;-144.30;37.90;83705.09;5109830;28;20194;-54
2023/06/10 15:20:01;;;;;;;4.55;4.25;;;;;;;-144.30;37.61;83713.06;5111225;28;20225;-53
2023/06/10 15:22:28;;;;;;;4.85;4.32;;;;;;;-144.30;37.69;83715.03;5109771;28;20202;-52
2023/06/10 15:24:57;;;;;;;7.10;4.47;;;;;;;-144.30;37.67;83711.06;5110062;28;20589;-53
2023/06/10 15:27:24;;;;;;;4.88;4.40;;;;;;;-144.30;38.03;83726.97;5110547;28;20649;-53
2023/06/10 15:29:51;;;;;;;10.43;4.82;;;;;;;-144.30;38.47;83728.97;5110591;28;20309;-63
2023/06/10 15:32:19;;;;;;;4.03;3.80;;;;;;;-144.30;38.13;83721.00;5110751;28;20667;-62
2023/06/10 15:34:47;;;;;;;4.38;4.03;;;;;;;-144.30;38.22;83683.25;5110270;28;20252;-62
2023/06/10 15:37:14;;;;;;;4.82;4.43;;;;;;;-144.30;39.84;83756.78;5110458;28;20279;-62
2023/06/10 15:39:41;;;;;;;5.00;4.20;;;;;;;-144.30;38.76;83705.09;5110420;28;20205;-63
2023/06/10 15:42:08;;;;;;;4.72;4.35;;;;;;;-144.30;38.66;83683.25;5110124;28;20267;-62
2023/06/10 15:44:35;;;;;;;5.65;3.97;;;;;;;-144.30;38.96;83693.19;5110317;28;20260;-65
2023/06/10 15:47:02;;;;;;;8.85;4.85;;;;;;;-144.30;39.26;83705.09;5110372;28;20282;-58
2023/06/10 15:49:31;;;;;;;5.28;4.53;;;;;;;-144.30;39.85;83766.72;5110190;28;20237;-54
2023/06/10 15:51:58;;;;;;;5.40;4.75;;;;;;;-144.30;39.46;83705.09;5109473;28;20203;-53
2023/06/10 15:54:25;;;;;;;4.43;4.22;;;;;;;-144.30;39.94;83764.72;5110060;28;20657;-53
2023/06/10 15:56:52;;;;;;;6.07;5.20;;;;;;;-144.30;39.90;83742.88;5110055;28;20305;-53
2023/06/10 15:59:19;;;;;;;5.35;4.85;;;;;;;-144.30;40.12;83752.78;5110322;28;20241;-55
2023/06/10 16:01:47;;;;;;;5.78;5.38;;;;;;;-144.30;40.16;83746.84;5109916;28;20281;-53
2023/06/10 16:04:14;;;;;;;5.85;5.18;;;;;;;-144.30;40.23;83752.78;5109844;28;20670;-53
2023/06/10 16:06:42;;;;;;;5.20;4.90;;;;;;;-144.30;40.09;83764.72;5109864;28;20730;-54
2023/06/10 16:09:09;;;;;;;5.20;4.80;;;;;;;-144.30;40.57;83744.84;5110052;28;20233;-53
2023/06/10 16:11:36;;;;;;;5.57;5.07;;;;;;;-144.30;40.83;83782.59;5109643;28;20277;-54
2023/06/10 16:14:03;;;;;;;5.20;4.80;;;;;;;-144.30;41.18;83774.66;5110205;28;20191;-53
2023/06/10 16:16:30;;;;;;;6.50;4.93;;;;;;;-144.30;41.39;83798.50;5109624;28;20218;-54
2023/06/10 16:18:57;;;;;;;5.72;5.10;;;;;;;-144.30;41.15;83742.88;5109776;28;20603;-54
2023/06/10 16:21:25;;;;;;;5.25;4.85;;;;;;;-144.30;41.44;83742.88;5109593;28;20641;-55
2023/06/10 16:23:53;;;;;;;8.15;5.15;;;;;;;-144.30;41.62;83784.59;5109451;28;20209;-53
2023/06/10 16:26:20;;;;;;;5.30;4.90;;;;;;;-144.30;41.65;83796.50;5108957;28;20633;-62
2023/06/10 16:28:47;;;;;;;4.95;4.65;;;;;;;-144.30;42.17;83826.31;5108960;28;20199;-64
2023/06/10 16:31:15;;;;;;;6.25;5.65;;;;;;;-144.30;42.24;83760.75;5109491;28;20226;-63
2023/06/10 16:33:42;;;;;;;6.90;4.78;;;;;;;-144.30;42.13;83784.59;5109501;28;20234;-63
2023/06/10 16:36:08;;;;;;;5.85;5.20;;;;;;;-144.30;42.03;83810.41;5109613;28;20222;-62
2023/06/10 16:38:35;;;;;;;5.63;5.22;;;;;;;-144.30;42.39;83802.47;5109724;28;20281;-63
2023/06/10 16:41:04;;;;;;;5.53;5.07;;;;;;;-144.30;42.84;83842.22;5109729;28;20237;-62
2023/06/10 16:43:31;;;;;;;6.10;4.93;;;;;;;-144.30;42.84;83834.25;5109672;28;20206;-63
2023/06/10 16:45:57;;;;;;;5.75;5.18;;;;;;;-144.30;42.99;83826.31;5108597;28;20201;-63
2023/06/10 16:48:24;;;;;;;5.78;5.28;;;;;;;-144.30;42.92;83858.09;5109340;28;20239;-62
2023/06/10 16:50:52;;;;;;;7.03;5.93;;;;;;;-144.30;43.25;83848.19;5108901;28;20666;-62
2023/06/10 16:53:18;;;;;;;5.07;4.78;;;;;;;-144.30;43.26;83818.38;5107168;28;20201;-62
2023/06/10 16:55:45;;;;;;;6.63;6.13;;;;;;;-144.30;43.28;83862.09;5111854;28;20792;-63
2023/06/10 16:58:14;;;;;;;5.53;5.03;;;;;;;-144.30;43.01;83826.31;5113818;28;20230;-63
2023/06/10 17:00:45;;;;;;;9.00;5.18;;;;;;;-144.30;43.07;83828.31;5113739;28;20194;-63
2023/06/10 17:03:12;;;;;;;6.40;5.10;;;;;;;-144.30;42.76;83866.06;5113854;28;20198;-63
2023/06/10 17:05:39;;;;;;;6.10;5.53;;;;;;;-144.30;43.17;83889.91;5113888;28;20722;-62
2023/06/10 17:08:06;;;;;;;5.40;5.10;;;;;;;-144.30;43.61;83864.06;5113262;28;20232;-62
2023/06/10 17:10:34;;;;;;;8.82;5.20;;;;;;;-144.30;43.32;83834.25;5112991;28;20247;-62
2023/06/10 17:13:01;;;;;;;6.97;5.53;;;;;;;-144.30;43.49;83897.84;5113278;28;20238;-63
2023/06/10 17:15:30;;;;;;;6.65;5.22;;;;;;;-144.30;43.47;83864.06;5113472;28;20230;-62
2023/06/10 17:17:57;;;;;;;6.68;6.18;;;;;;;-144.30;43.58;83881.97;5113332;28;20206;-63
2023/06/10 17:20:24;;;;;;;6.05;5.50;;;;;;;-144.30;43.40;83866.06;5113202;28;20228;-63
2023/06/10 17:22:50;;;;;;;5.30;4.90;;;;;;;-144.30;43.62;83881.97;5109669;28;20290;-54
2023/06/10 17:25:17;;;;;;;8.00;6.70;;;;;;;-144.30;44.01;83766.72;5112761;28;20281;-54
2023/06/10 17:27:45;;;;;;;6.80;5.85;;;;;;;-144.30;44.18;83899.84;5111811;28;20203;-55
2023/06/10 17:30:12;;;;;;;5.43;5.13;;;;;;;-144.30;44.43;83889.91;5112384;28;20583;-54
2023/06/10 17:32:40;;;;;;;6.55;5.28;;;;;;;-144.30;44.98;83977.34;5112485;28;20285;-54
2023/06/10 17:35:08;;;;;;;6.80;6.20;;;;;;;-144.30;45.56;83963.44;5112148;28;20205;-53
2023/06/10 17:37:35;;;;;;;6.25;5.75;;;;;;;-144.30;45.83;83941.56;5112258;28;20601;-53
2023/06/10 17:40:02;;;;;;;7.00;6.35;;;;;;;-144.30;46.77;84009.13;5112863;28;20688;-53
2023/06/10 17:42:29;;;;;;;6.80;6.07;;;;;;;-144.30;47.34;84009.13;5112634;28;20194;-54
2023/06/10 17:44:56;;;;;;;7.25;6.07;;;;;;;-144.30;47.91;83973.38;5111603;28;20229;-63
2023/06/10 17:47:23;;;;;;;7.32;6.57;;;;;;;-144.30;48.80;84011.13;5111902;28;20190;-63
2023/06/10 17:49:52;;;;;;;10.50;8.35;;;;;;;-144.30;49.06;83995.22;5112666;28;20654;-63
2023/06/10 17:52:19;;;;;;;22.15;13.05;;;;;;;-144.30;49.75;84029.00;5112308;28;20226;-64
2023/06/10 17:54:45;;;;;;;14.57;9.65;;;;;;;-144.30;49.91;84040.91;5111700;28;20208;-63
2023/06/10 17:57:12;;;;;;;7.82;7.13;;;;;;;-144.30;52.73;84019.06;5091594;28;20235;-63
2023/06/10 17:59:40;;;;;;;8.68;5.65;;;;;;;-144.30;54.29;84064.78;5091769;28;20598;-63
2023/06/10 18:02:07;;;;;;;7.00;5.03;;;;;;;-144.30;55.18;84076.69;5091624;28;20610;-63
2023/06/10 18:04:34;;;;;;;5.50;4.95;;;;;;;-144.30;55.15;84110.47;5097539;28;20222;-62
2023/06/10 18:07:03;;;;;;;7.70;5.40;;;;;;;-144.30;55.58;84122.41;5110827;28;20218;-61
2023/06/10 18:09:29;;;;;;;5.30;4.80;;;;;;;-144.30;55.93;84142.28;5110476;28;20283;-63
2023/06/10 18:11:56;;;;;;;6.05;5.55;;;;;;;-144.30;56.56;84160.16;5111268;28;20305;-63
2023/06/10 18:14:23;;;;;;;5.90;5.32;;;;;;;-144.30;56.51;84158.16;5111420;28;20226;-63
2023/06/10 18:16:50;;;;;;;6.57;5.45;;;;;;;-144.30;57.41;84203.88;5110162;28;20225;-64
2023/06/10 18:19:17;;;;;;;5.65;5.15;;;;;;;-144.30;58.57;84186.00;5111275;28;20218;-63
2023/06/10 18:21:44;;;;;;;7.30;4.88;;;;;;;-144.30;59.55;84219.78;5111847;28;20261;-65
2023/06/10 18:24:13;;;;;;;5.28;4.90;;;;;;;-144.30;59.83;84265.47;5110424;28;20210;-64
2023/06/10 18:26:39;;;;;;;7.93;4.47;;;;;;;-144.30;60.57;84297.28;5111146;28;20993;-64
2023/06/10 18:29:06;;;;;;;6.53;5.20;;;;;;;-144.30;61.59;84275.41;5111318;28;20226;-63
2023/06/10 18:31:33;;;;;;;6.32;5.60;;;;;;;-144.30;61.95;84291.31;5111650;28;20222;-64
2023/06/10 18:34:01;;;;;;;6.15;5.68;;;;;;;-144.30;62.16;84313.19;5110977;28;20242;-64
2023/06/10 18:36:28;;;;;;;6.07;5.68;;;;;;;-144.30;62.14;84297.28;5111316;28;20618;-64
2023/06/10 18:38:55;;;;;;;6.47;5.90;;;;;;;-144.30;62.09;84350.94;5110471;28;20225;-63
2023/06/10 18:41:24;;;;;;;5.80;5.40;;;;;;;-144.30;61.63;85010.78;5123970;27;20747;-63
2023/06/10 18:43:51;;;;;;;10.63;4.65;;;;;;;-144.30;61.62;84348.94;5132197;27;20293;-65
2023/06/10 18:46:18;;;;;;;6.53;5.45;;;;;;;-144.30;61.86;84386.72;5131610;27;20190;-64
2023/06/10 18:48:47;;;;;;;5.97;5.28;;;;;;;-144.30;62.59;84356.91;5132155;27;20670;-64
2023/06/10 18:51:13;;;;;;;9.35;5.40;;;;;;;-144.30;62.98;84388.69;5131979;27;20202;-64
2023/06/10 18:53:40;;;;;;;9.15;4.88;;;;;;;-144.30;63.36;84370.81;5129779;27;20228;-64
2023/06/10 18:56:07;;;;;;;5.70;5.20;;;;;;;-144.30;63.88;84358.88;5111350;28;20222;-62
2023/06/10 18:58:36;;;;;;;6.57;5.07;;;;;;;-144.30;64.32;84414.53;5111045;28;20194;-64
2023/06/10 19:01:04;;;;;;;6.25;5.50;;;;;;;-144.30;64.89;84376.78;5112389;28;20202;-64
2023/06/10 19:03:31;;;;;;;5.30;4.85;;;;;;;-144.30;65.56;84406.59;5110789;28;20202;-54
2023/06/10 19:05:59;;;;;;;6.15;5.32;;;;;;;-144.30;65.87;84438.38;5111054;28;20221;-64
2023/06/10 19:08:26;;;;;;;5.22;4.75;;;;;;;-144.30;66.03;84456.25;5110831;28;20195;-65
2023/06/10 19:10:53;;;;;;;6.90;4.95;;;;;;;-144.30;66.53;84432.41;5111028;28;20202;-65
2023/06/10 19:13:20;;;;;;;5.63;5.22;;;;;;;-144.30;67.21;84327.09;5111213;28;20191;-65
2023/06/10 19:15:49;;;;;;;5.93;5.22;;;;;;;-144.30;67.41;84438.38;5111117;28;20194;-65
2023/06/10 19:18:15;;;;;;;5.63;5.20;;;;;;;-144.30;67.90;84450.31;5110263;28;20194;-65
2023/06/10 19:20:43;;;;;;;6.07;5.57;;;;;;;-144.30;68.17;84470.19;5111204;28;20190;-64
2023/06/10 19:23:10;;;;;;;6.13;5.50;;;;;;;-144.30;68.37;84450.31;5110781;28;20194;-65
2023/06/10 19:25:37;;;;;;;5.90;5.38;;;;;;;-144.30;68.70;84480.13;5110791;28;20194;-65
2023/06/10 19:28:07;;;;;;;5.70;5.30;;;;;;;-144.30;69.20;84458.25;5110612;28;20585;-66
2023/06/10 19:30:34;;;;;;;6.70;5.78;;;;;;;-144.30;69.53;84476.13;5110852;28;20198;-64
2023/06/10 19:33:02;;;;;;;6.32;5.72;;;;;;;-144.30;69.81;84446.31;5110418;28;20234;-66
2023/06/10 19:35:30;;;;;;;7.13;6.20;;;;;;;-144.30;69.42;84482.09;5110684;28;20195;-66
2023/06/10 19:37:57;;;;;;;6.22;5.63;;;;;;;-144.30;69.97;84470.19;5110717;28;20218;-66
2023/06/10 19:40:24;;;;;;;6.93;6.22;;;;;;;-144.30;70.39;84500.00;5110585;28;20198;-65
2023/06/10 19:42:51;;;;;;;6.95;5.50;;;;;;;-144.30;70.78;84450.31;5110607;28;20205;-54
2023/06/10 19:45:18;;;;;;;6.18;5.68;;;;;;;-144.30;70.90;84456.25;5110428;28;20194;-54
2023/06/10 19:47:45;;;;;;;6.20;5.70;;;;;;;-144.30;71.17;84505.94;5110895;28;20241;-55
2023/06/10 19:50:14;;;;;;;8.75;5.90;;;;;;;-144.30;71.26;84472.16;5110419;28;20644;-55
2023/06/10 19:52:40;;;;;;;6.80;6.30;;;;;;;-144.30;71.51;84513.91;5110294;28;20191;-54
2023/06/10 19:55:08;;;;;;;6.05;5.55;;;;;;;-144.30;71.62;84496.00;5109995;28;20594;-54